createdAt,value
2023-03-23T15:57:53.824Z,100016.00
2023-03-23T16:00:56.459Z,100016.16
2023-03-23T16:04:05.963Z,100009.25
2023-03-23T16:07:08.759Z,100011.06
2023-03-23T16:10:23.053Z,100006.59
2023-03-23T16:13:24.688Z,100009.97
2023-03-23T16:16:38.836Z,100005.22
2023-03-23T16:19:40.439Z,99985.44
2023-03-23T16:22:42.358Z,99982.50
2023-03-23T16:25:44.421Z,99972.63
2023-03-23T16:28:46.324Z,99969.84
2023-03-23T16:31:47.888Z,99979.69
2023-03-23T16:34:49.406Z,99980.66
2023-03-23T16:38:07.235Z,99975.31
2023-03-23T16:41:10.240Z,99995.84
2023-03-23T16:44:12.615Z,99993.88
2023-03-23T16:47:14.202Z,99991.22
2023-03-23T16:50:18.521Z,99997.53
2023-03-23T16:53:20.971Z,100000.44
2023-03-23T16:56:22.574Z,99997.22
2023-03-23T16:59:24.111Z,100002.66
2023-03-23T17:02:25.875Z,100001.97
2023-03-23T17:05:29.235Z,100000.41
2023-03-23T17:08:30.924Z,100010.38
2023-03-23T17:11:32.573Z,100010.63
2023-03-23T17:14:34.298Z,100010.06
2023-03-23T17:17:36.164Z,100017.34
2023-03-23T17:20:38.131Z,100022.09
2023-03-23T17:23:39.674Z,100023.47
2023-03-23T17:26:41.808Z,100025.56
2023-03-23T17:29:44.121Z,100034.94
2023-03-23T17:32:47.625Z,100020.28
2023-03-23T17:35:52.038Z,100026.88
2023-03-23T17:38:53.819Z,100031.75
2023-03-23T17:41:55.603Z,100040.91
2023-03-23T17:44:57.143Z,100037.78
2023-03-23T17:47:58.797Z,100052.63
2023-03-23T17:51:02.352Z,100057.63
2023-03-23T17:54:04.054Z,100062.34
2023-03-23T17:57:05.990Z,100061.78
2023-03-23T18:00:09.125Z,100068.44
2023-03-23T18:03:10.855Z,100063.75
2023-03-23T18:06:12.692Z,100059.66
2023-03-23T18:09:15.542Z,100053.69
2023-03-23T18:12:17.799Z,100057.59
2023-03-23T18:15:19.494Z,100053.38
2023-03-23T18:18:22.249Z,100058.09
2023-03-23T18:21:23.853Z,100056.53
2023-03-23T18:24:25.562Z,100054.00
2023-03-23T18:27:27.193Z,100048.78
2023-03-23T18:30:28.801Z,100054.22
2023-03-23T18:33:30.416Z,100055.31
2023-03-23T18:36:32.106Z,100061.63
2023-03-23T18:39:38.029Z,100064.28
2023-03-23T18:42:41.232Z,100057.50
2023-03-23T18:45:48.845Z,100062.22
2023-03-23T18:48:50.415Z,100060.56
2023-03-23T18:51:51.957Z,100065.16
2023-03-23T18:54:53.791Z,100072.31
2023-03-23T18:57:55.647Z,100077.72
2023-03-23T19:00:57.615Z,100062.13
2023-03-23T19:03:59.283Z,100062.25
2023-03-23T19:07:04.493Z,100063.13
2023-03-23T19:10:06.423Z,100054.38
2023-03-23T19:13:09.381Z,100053.78
2023-03-23T19:16:11.061Z,100058.25
2023-03-23T19:19:12.653Z,100049.56
2023-03-23T19:22:14.252Z,100043.38
2023-03-23T19:25:16.016Z,100047.75
2023-03-23T19:31:25.136Z,100028.25
2023-03-23T19:34:28.159Z,100028.38
2023-03-23T19:37:34.609Z,100025.72
2023-03-23T19:40:42.063Z,100033.09
2023-03-23T19:43:44.194Z,100014.59
2023-03-23T19:46:46.171Z,100017.50
2023-03-23T19:49:47.826Z,100024.63
2023-03-23T19:52:49.382Z,100027.91
2023-03-23T19:55:51.672Z,100014.59
2023-03-23T19:58:53.624Z,100013.75
2023-03-23T20:01:55.188Z,100029.81
2023-03-23T20:04:57.032Z,100026.34
2023-03-23T20:07:58.593Z,100020.16
2023-03-23T20:11:04.858Z,100015.78
2023-03-23T20:14:07.393Z,100023.91
2023-03-23T20:17:09.913Z,100023.19
2023-03-23T20:20:11.897Z,100021.50
2023-03-23T20:23:13.539Z,100011.78
2023-03-23T20:26:25.688Z,100014.47
2023-03-23T20:29:31.342Z,100011.91
2023-03-23T20:32:33.265Z,100004.03
2023-03-23T20:35:34.944Z,100001.47
2023-03-23T20:38:38.538Z,99997.16
2023-03-23T20:41:40.565Z,99997.97
2023-03-23T20:44:42.955Z,99990.75
2023-03-23T20:47:44.588Z,99995.06
2023-03-23T20:50:47.250Z,99982.50
2023-03-23T20:53:48.779Z,99986.88
2023-03-23T20:56:51.715Z,99980.84
2023-03-23T20:59:53.850Z,99986.88
2023-03-23T21:02:55.905Z,99985.19
2023-03-23T21:05:58.426Z,99984.34
2023-03-23T21:09:00.017Z,99979.84
2023-03-23T21:12:06.184Z,99965.59
2023-03-23T21:15:08.333Z,99969.94
2023-03-23T21:18:11.208Z,99964.63
2023-03-23T21:21:15.089Z,99955.53
2023-03-23T21:24:16.931Z,99951.03
2023-03-23T21:27:18.615Z,99951.03
2023-03-23T21:30:21.703Z,99947.56
2023-03-23T21:33:24.221Z,99936.78
2023-03-23T21:36:27.291Z,99933.97
2023-03-23T21:39:29.044Z,99930.50
2023-03-23T21:42:30.936Z,99922.75
2023-03-23T21:45:33.732Z,99916.72
2023-03-23T21:48:38.749Z,99907.00
2023-03-23T21:51:41.722Z,99907.22
2023-03-23T21:54:43.230Z,99910.03
2023-03-23T21:57:44.969Z,99897.66
2023-03-23T22:00:49.823Z,99894.16
2023-03-23T22:03:51.987Z,99878.19
2023-03-23T22:06:53.570Z,99876.63
2023-03-23T22:09:55.138Z,99874.81
2023-03-23T22:12:56.879Z,99858.97
2023-03-23T22:16:01.200Z,99867.91
2023-03-23T22:19:03.655Z,99860.78
2023-03-23T22:22:05.979Z,99859.94
2023-03-23T22:25:08.690Z,99844.97
2023-03-23T22:28:10.576Z,99851.09
2023-03-23T22:31:18.470Z,99847.72
2023-03-23T22:34:20.502Z,99838.91
2023-03-23T22:37:22.115Z,99835.41
2023-03-23T22:40:24.041Z,99837.06
2023-03-23T22:43:27.016Z,99835.28
2023-03-23T22:46:28.814Z,99829.00
2023-03-23T22:49:30.401Z,99820.88
2023-03-23T22:52:32.748Z,99807.69
2023-03-23T22:55:34.318Z,99811.19
2023-03-23T22:58:36.279Z,99803.19
2023-03-23T23:01:38.076Z,99803.09
2023-03-23T23:04:39.675Z,99796.78
2023-03-23T23:07:41.569Z,99787.97
2023-03-23T23:10:46.346Z,99779.00
2023-03-23T23:13:48.798Z,99784.31
2023-03-23T23:16:51.835Z,99766.13
2023-03-23T23:19:53.512Z,99766.25
2023-03-23T23:22:55.074Z,99768.91
2023-03-23T23:25:57.265Z,99756.69
2023-03-23T23:28:58.885Z,99753.47
2023-03-23T23:32:02.203Z,99755.41
2023-03-23T23:35:05.041Z,99748.34
2023-03-23T23:38:09.636Z,99741.47
2023-03-23T23:41:11.296Z,99738.09
2023-03-23T23:44:12.874Z,99733.88
2023-03-23T23:47:14.635Z,99724.47
2023-03-23T23:50:16.968Z,99726.28
2023-03-23T23:53:22.777Z,99718.56
2023-03-23T23:56:25.157Z,99721.34
2023-03-23T23:59:27.316Z,99710.97
